Aberdeen, NC (28315)

8:26 AM EDT on April 18, 2015 (GMT -0400)
Bethesda farms | | Change Station
CLOSE
Current Station
Personal Weather Station
Location: Aberdeen, NC
Elevation: 528 ft
Nearby Weather Stations

Elev 528 ft 35.13 °N, 79.40 °W | Updated 11 minutes ago

Overcast
Overcast
63.3 °F
Feels Like 63.3 °F
N
0.0
Wind Variable Wind from North

Today
High -- | Low -- °F
--% Chance of Precip.
Yesterday
High -- | Low -- °F
Precip. -- in
6:42 AM 7:52 PM
Waning Crescent, 0% visible
Pressure 30.01 in
Visibility 7.0 miles
Clouds Overcast 11000 ft
Dew Point 63 °F
Humidity 98%
Rainfall 0.02 in
Snow Depth Not available.
UV 0 out of 12
Pollen 9.90 out of 12
Air Quality Not available.
Flu Activity Sporadic
METAR KSOP 181215Z AUTO 00000KT 7SM OVC110 18/16 A3001 RMK AO1

More Conditions Fewer Conditions

Pressure 30.01 in
Visibility 7.0 miles
Clouds Overcast 11000 ft
Dew Point 63 °F
Humidity 98%
Rainfall 0.02 in
Snow Depth Not available.
UV 0 out of 12
Pollen 9.90 out of 12
Air Quality Not available.
Flu Activity Sporadic
METAR KSOP 181215Z AUTO 00000KT 7SM OVC110 18/16 A3001 RMK AO1

More Conditions Fewer Conditions

10-Day Weather Forecast

Almanac

Astronomy

Apr. 18, 2015 Rise Set
Actual Time
Civil Twilight
Nautical Twilight
Astronomical Twilight
Moon
Length of Visible Light
Length of Day
Tomorrow will be .
, % of the Moon is Illuminated

Today's Extremes

State Highs State Lows

Community

WunderPhotos

Upload Photos

1,814,375 photos uploaded!

WunderBlogs® & News

Nearby

Air Quality

  Air Quality AQ Index Pollutant
Not available.

Snow Depth

Station Depth Elevation

Earthquake Activity

City Distance Mag. Time & Date
Minimum magnitude displayed is 2.5.

Coastal Water Temperatures

Place Temperature

Stations

Nearby Weather Stations

Station Location Temp. Windchill Dew Point Humidity Wind Precip. Elev Updated Type